createdAt,value
2022-09-23T00:01:14.603Z,3.50
2022-09-23T00:03:46.269Z,4.07
2022-09-23T00:06:20.866Z,3.77
2022-09-23T00:08:51.462Z,3.90
2022-09-23T00:11:25.231Z,4.07
2022-09-23T00:13:56.833Z,3.60
2022-09-23T00:16:29.522Z,3.50
2022-09-23T00:18:56.925Z,3.20
2022-09-23T00:21:25.052Z,3.20
2022-09-23T00:23:52.058Z,3.77
2022-09-23T00:26:21.898Z,3.70
2022-09-23T00:28:50.606Z,3.33
2022-09-23T00:31:22.617Z,3.57
2022-09-23T00:33:59.760Z,3.13
2022-09-23T00:36:30.180Z,3.30
2022-09-23T00:38:57.032Z,3.33
2022-09-23T00:41:24.899Z,3.40
2022-09-23T00:44:01.510Z,3.37
2022-09-23T00:46:45.803Z,3.17
2022-09-23T00:49:17.602Z,3.10
2022-09-23T00:51:55.030Z,3.47
2022-09-23T00:54:25.984Z,3.60
2022-09-23T00:56:54.225Z,3.07
2022-09-23T00:59:24.323Z,3.53
2022-09-23T01:01:54.824Z,3.20
2022-09-23T01:04:28.013Z,3.30
2022-09-23T01:06:54.921Z,3.43
2022-09-23T01:09:25.119Z,4.10
2022-09-23T01:12:19.698Z,4.40
2022-09-23T01:15:21.168Z,3.70
2022-09-23T01:18:54.172Z,3.30
2022-09-23T01:21:29.847Z,3.73
2022-09-23T01:24:30.123Z,3.83
2022-09-23T01:27:18.083Z,3.50
2022-09-23T01:30:14.077Z,3.40
2022-09-23T01:33:10.158Z,3.97
2022-09-23T01:36:35.575Z,3.30
2022-09-23T01:39:14.084Z,4.50
2022-09-23T01:42:17.238Z,3.70
2022-09-23T01:44:56.227Z,2.90
2022-09-23T01:47:31.086Z,3.50
2022-09-23T01:50:24.871Z,3.67
2022-09-23T01:52:59.069Z,4.40
2022-09-23T01:55:35.365Z,4.57
2022-09-23T01:58:18.257Z,3.37
2022-09-23T02:00:57.801Z,4.40
2022-09-23T02:03:35.028Z,3.53
2022-09-23T02:06:10.812Z,3.67
2022-09-23T02:09:16.575Z,3.63
2022-09-23T02:11:48.691Z,4.07
2022-09-23T02:14:53.049Z,3.73
2022-09-23T02:17:52.311Z,3.87
2022-09-23T02:20:36.092Z,3.73
2022-09-23T02:23:24.994Z,3.30
2022-09-23T02:26:23.102Z,3.67
2022-09-23T02:29:13.820Z,3.73
2022-09-23T02:32:05.334Z,3.70
2022-09-23T02:35:17.935Z,3.93
2022-09-23T02:38:12.495Z,3.80
2022-09-23T02:40:50.886Z,3.63
2022-09-23T02:43:29.942Z,4.90
2022-09-23T02:45:56.829Z,4.73
2022-09-23T02:48:33.080Z,3.97
2022-09-23T02:51:02.265Z,4.40
2022-09-23T02:53:33.741Z,3.53
2022-09-23T02:56:02.298Z,4.10
2022-09-23T02:58:29.896Z,3.97
2022-09-23T03:01:52.726Z,4.90
2022-09-23T03:04:56.955Z,4.80
2022-09-23T03:08:21.117Z,4.97
2022-09-23T03:11:04.259Z,4.10
2022-09-23T03:13:53.094Z,4.03
2022-09-23T03:16:43.514Z,4.77
2022-09-23T03:19:33.790Z,4.27
2022-09-23T03:22:11.536Z,3.60
2022-09-23T03:24:44.698Z,4.93
2022-09-23T03:27:18.694Z,4.37
2022-09-23T03:29:53.330Z,4.60
2022-09-23T03:32:26.681Z,3.93
2022-09-23T03:34:58.357Z,4.50
2022-09-23T03:38:15.952Z,4.50
2022-09-23T03:40:47.726Z,4.20
2022-09-23T03:43:14.712Z,4.90
2022-09-23T03:45:42.537Z,4.60
2022-09-23T03:48:09.689Z,4.70
2022-09-23T03:50:36.747Z,4.80
2022-09-23T03:53:03.591Z,4.13
2022-09-23T03:55:31.215Z,3.50
2022-09-23T03:58:00.270Z,3.90
2022-09-23T04:00:27.644Z,3.83
2022-09-23T04:02:54.475Z,4.53
2022-09-23T04:05:21.392Z,4.33
2022-09-23T04:07:49.092Z,3.87
2022-09-23T04:10:16.032Z,3.77
2022-09-23T04:12:42.862Z,4.63
2022-09-23T04:15:10.513Z,3.90
2022-09-23T04:17:37.591Z,4.53
2022-09-23T04:20:05.093Z,3.70
2022-09-23T04:22:34.960Z,5.00
2022-09-23T04:25:02.282Z,4.37
2022-09-23T04:27:30.016Z,4.23
2022-09-23T04:29:58.123Z,5.17
2022-09-23T04:32:25.193Z,4.00
2022-09-23T04:34:52.124Z,3.80
2022-09-23T04:37:18.943Z,5.03
2022-09-23T04:39:45.778Z,4.00
2022-09-23T04:42:12.588Z,4.87
2022-09-23T04:44:39.647Z,4.50
2022-09-23T04:47:06.754Z,4.53
2022-09-23T04:49:33.836Z,5.57
2022-09-23T04:52:01.688Z,5.23
2022-09-23T04:54:29.434Z,4.93
2022-09-23T04:56:56.355Z,5.57
2022-09-23T04:59:23.682Z,4.83
2022-09-23T05:01:51.808Z,4.33
2022-09-23T05:04:18.791Z,4.20
2022-09-23T05:06:45.560Z,4.43
2022-09-23T05:09:17.491Z,4.10
2022-09-23T05:11:45.611Z,4.60
2022-09-23T05:14:13.059Z,4.80
2022-09-23T05:16:40.416Z,4.40
2022-09-23T05:19:07.468Z,6.83
2022-09-23T05:21:35.125Z,5.93
2022-09-23T05:24:02.469Z,6.10
2022-09-23T05:26:32.118Z,4.40
2022-09-23T05:29:00.381Z,4.60
2022-09-23T05:31:30.143Z,5.37
2022-09-23T05:34:01.187Z,4.23
2022-09-23T05:36:36.935Z,4.63
2022-09-23T05:39:06.974Z,3.93
2022-09-23T05:41:34.068Z,4.60
2022-09-23T05:44:01.830Z,5.60
2022-09-23T05:46:31.361Z,4.73
2022-09-23T05:49:02.855Z,5.40
2022-09-23T05:51:35.995Z,4.70
2022-09-23T05:54:06.505Z,5.57
2022-09-23T05:56:34.997Z,5.77
2022-09-23T05:59:03.688Z,6.10
2022-09-23T06:01:35.210Z,6.50
2022-09-23T06:04:05.007Z,5.20
2022-09-23T06:06:36.211Z,5.33
2022-09-23T06:09:04.011Z,7.03
2022-09-23T06:11:33.285Z,6.33
2022-09-23T06:14:02.136Z,6.80
2022-09-23T06:16:33.001Z,6.03
2022-09-23T06:19:05.876Z,5.00
2022-09-23T06:21:36.525Z,5.60
2022-09-23T06:24:04.860Z,5.77
2022-09-23T06:26:35.165Z,6.20
2022-09-23T06:29:04.385Z,4.87
2022-09-23T06:31:31.976Z,5.87
2022-09-23T06:34:09.149Z,6.33
2022-09-23T06:36:43.828Z,5.50
2022-09-23T06:39:12.834Z,6.60
2022-09-23T06:41:39.757Z,6.60
2022-09-23T06:44:14.339Z,8.17
2022-09-23T06:46:41.605Z,8.80
2022-09-23T06:49:09.074Z,8.87
2022-09-23T06:51:35.990Z,9.47
2022-09-23T06:54:03.491Z,10.23
2022-09-23T06:56:33.646Z,9.70
2022-09-23T06:59:05.422Z,9.43
2022-09-23T07:01:32.307Z,9.97
2022-09-23T07:04:00.491Z,9.67
2022-09-23T07:06:27.459Z,9.77
2022-09-23T07:08:54.544Z,8.60
2022-09-23T07:11:22.490Z,9.27
2022-09-23T07:13:49.603Z,9.17
2022-09-23T07:16:16.633Z,9.03
2022-09-23T07:18:45.597Z,9.10
2022-09-23T07:21:17.366Z,8.00
2022-09-23T07:23:50.042Z,8.80
2022-09-23T07:26:18.871Z,8.63
2022-09-23T07:28:45.821Z,9.03
2022-09-23T07:31:27.433Z,8.67
2022-09-23T07:34:01.235Z,9.63
2022-09-23T07:36:32.572Z,9.90
2022-09-23T07:39:03.821Z,10.10
2022-09-23T07:41:33.114Z,9.93
2022-09-23T07:44:01.568Z,9.47
2022-09-23T07:46:31.788Z,8.90
2022-09-23T07:48:59.393Z,8.30
2022-09-23T07:51:36.394Z,9.00
2022-09-23T07:54:07.791Z,8.63
2022-09-23T07:56:36.623Z,7.57
2022-09-23T07:59:05.159Z,8.30
2022-09-23T08:01:46.143Z,6.80
2022-09-23T08:04:17.056Z,6.90
2022-09-23T08:06:54.327Z,7.93
2022-09-23T08:09:25.640Z,7.47
2022-09-23T08:11:53.726Z,7.17
2022-09-23T08:14:22.319Z,7.40
2022-09-23T08:16:50.685Z,7.40
2022-09-23T08:19:18.726Z,7.70
2022-09-23T08:21:47.442Z,6.47
2022-09-23T08:24:19.596Z,6.43
2022-09-23T08:26:48.290Z,5.90
2022-09-23T08:29:19.706Z,5.37
2022-09-23T08:31:47.368Z,5.43
2022-09-23T08:34:14.261Z,4.63
2022-09-23T08:36:41.433Z,5.43
2022-09-23T08:39:12.860Z,4.20
2022-09-23T08:42:07.234Z,4.53
2022-09-23T08:44:53.372Z,3.90
2022-09-23T08:47:29.279Z,3.70
2022-09-23T08:50:15.269Z,3.90
2022-09-23T08:52:55.898Z,3.20
2022-09-23T08:55:49.034Z,3.70
2022-09-23T08:59:01.268Z,3.40
2022-09-23T09:01:43.936Z,3.07
2022-09-23T09:04:35.516Z,3.30
2022-09-23T09:07:36.085Z,3.53
2022-09-23T09:10:15.945Z,3.77
2022-09-23T09:13:35.295Z,3.00
2022-09-23T09:16:18.808Z,3.83
2022-09-23T09:19:01.235Z,3.20
2022-09-23T09:21:42.632Z,3.37
2022-09-23T09:24:26.241Z,3.30
2022-09-23T09:26:53.657Z,3.20
2022-09-23T09:29:38.850Z,2.73
2022-09-23T09:32:38.777Z,3.03
2022-09-23T09:35:23.143Z,2.63
2022-09-23T09:37:50.195Z,2.73
2022-09-23T09:40:17.596Z,2.90
2022-09-23T09:42:50.305Z,2.63
2022-09-23T09:45:28.355Z,2.80
2022-09-23T09:48:18.223Z,2.37
2022-09-23T09:50:49.907Z,2.40
2022-09-23T09:53:24.874Z,2.27
2022-09-23T09:56:07.387Z,2.07
2022-09-23T09:58:49.124Z,2.03
2022-09-23T10:01:31.662Z,2.20
2022-09-23T10:04:03.632Z,2.37
2022-09-23T10:06:35.946Z,2.23
2022-09-23T10:09:19.185Z,2.50
2022-09-23T10:12:15.358Z,2.10
2022-09-23T10:14:43.215Z,2.23
2022-09-23T10:17:22.313Z,2.10
2022-09-23T10:20:01.225Z,2.07
2022-09-23T10:22:42.754Z,2.23
2022-09-23T10:25:20.148Z,2.10
2022-09-23T10:27:47.257Z,2.57
2022-09-23T10:30:27.455Z,2.00
2022-09-23T10:32:56.805Z,2.10
2022-09-23T10:35:26.453Z,2.57
2022-09-23T10:37:56.314Z,2.20
2022-09-23T10:40:55.846Z,1.97
2022-09-23T10:43:56.431Z,2.40
2022-09-23T10:46:39.401Z,1.97
2022-09-23T10:49:31.035Z,2.10
2022-09-23T10:52:31.828Z,2.50
2022-09-23T10:55:08.671Z,2.20
2022-09-23T10:58:02.053Z,2.20
2022-09-23T11:01:13.344Z,2.03
2022-09-23T11:03:49.143Z,2.50
2022-09-23T11:06:57.877Z,1.87
2022-09-23T11:10:23.379Z,2.20
2022-09-23T11:13:36.178Z,1.70
2022-09-23T11:16:25.699Z,2.80
2022-09-23T11:19:07.650Z,2.20
2022-09-23T11:22:10.465Z,2.17
2022-09-23T11:25:32.150Z,2.20
2022-09-23T11:28:58.955Z,1.63
2022-09-23T11:32:15.326Z,1.67
2022-09-23T11:35:24.300Z,1.60
2022-09-23T11:38:12.250Z,1.53
2022-09-23T11:40:46.453Z,1.93
2022-09-23T11:43:24.522Z,1.77
2022-09-23T11:46:18.191Z,1.70
2022-09-23T11:49:15.811Z,1.87
2022-09-23T11:52:19.523Z,1.50
2022-09-23T11:55:21.853Z,1.20
2022-09-23T11:57:55.934Z,2.33
2022-09-23T12:00:34.350Z,1.33
2022-09-23T12:03:41.744Z,1.30
2022-09-23T12:06:38.558Z,1.80
2022-09-23T12:09:35.728Z,1.37
2022-09-23T12:12:58.840Z,1.70
2022-09-23T12:16:09.852Z,1.20
2022-09-23T12:19:07.890Z,1.50
2022-09-23T12:22:24.052Z,1.23
2022-09-23T12:25:10.284Z,1.47
2022-09-23T12:27:45.608Z,1.33
2022-09-23T12:30:21.084Z,1.90
2022-09-23T12:32:48.393Z,1.17
2022-09-23T12:35:33.486Z,1.53
2022-09-23T12:38:02.127Z,1.23
2022-09-23T12:40:43.644Z,1.30
2022-09-23T12:43:33.135Z,1.97
2022-09-23T12:46:27.471Z,2.00
2022-09-23T12:48:57.214Z,1.63
2022-09-23T12:51:48.397Z,1.30
2022-09-23T12:54:24.153Z,1.60
2022-09-23T12:56:53.969Z,1.90
2022-09-23T12:59:28.064Z,2.10
2022-09-23T13:01:56.817Z,1.60
2022-09-23T13:05:11.982Z,1.40
2022-09-23T13:07:46.166Z,1.43
2022-09-23T13:10:45.015Z,1.30
2022-09-23T13:13:27.475Z,1.70
2022-09-23T13:15:55.368Z,1.50
2022-09-23T13:18:22.154Z,1.70
2022-09-23T13:20:52.632Z,1.10
2022-09-23T13:23:25.431Z,1.30
2022-09-23T13:26:10.745Z,1.47
2022-09-23T13:28:56.720Z,1.10
2022-09-23T13:31:23.762Z,1.27
2022-09-23T13:34:06.659Z,1.40
2022-09-23T13:36:46.148Z,1.90
2022-09-23T13:39:28.987Z,1.77
2022-09-23T13:42:01.559Z,1.90
2022-09-23T13:44:29.629Z,1.70
2022-09-23T13:47:02.159Z,1.20
2022-09-23T13:49:35.252Z,1.50
2022-09-23T13:52:03.617Z,1.50
2022-09-23T13:54:46.932Z,1.40
2022-09-23T13:57:35.300Z,1.57
2022-09-23T14:00:25.235Z,1.53
2022-09-23T14:02:55.334Z,1.37
2022-09-23T14:05:27.144Z,2.00
2022-09-23T14:07:57.035Z,1.93
2022-09-23T14:10:27.600Z,1.83
2022-09-23T14:12:56.808Z,2.67
2022-09-23T14:15:24.036Z,1.87
2022-09-23T14:18:06.827Z,4.37
2022-09-23T14:20:50.213Z,3.20
2022-09-23T14:23:17.597Z,1.90
2022-09-23T14:25:46.476Z,2.07
2022-09-23T14:28:20.461Z,1.83
2022-09-23T14:30:50.537Z,1.70
2022-09-23T14:33:23.281Z,1.63
2022-09-23T14:35:56.906Z,1.40
2022-09-23T14:38:49.330Z,1.50
2022-09-23T14:41:26.269Z,1.60
2022-09-23T14:43:58.545Z,1.63
2022-09-23T14:46:30.085Z,1.60
2022-09-23T14:49:06.154Z,1.60
2022-09-23T14:51:53.282Z,1.40
2022-09-23T14:54:44.764Z,1.40
2022-09-23T14:57:22.695Z,1.57
2022-09-23T15:00:00.603Z,1.40
2022-09-23T15:02:37.676Z,1.33
2022-09-23T15:05:16.189Z,1.67
2022-09-23T15:07:52.429Z,1.60
2022-09-23T15:10:40.388Z,1.50
2022-09-23T15:13:20.947Z,1.30
2022-09-23T15:15:52.727Z,2.23
2022-09-23T15:18:38.403Z,1.60
2022-09-23T15:21:17.002Z,2.67
2022-09-23T15:23:57.563Z,1.90
2022-09-23T15:26:49.995Z,1.77
2022-09-23T15:29:18.184Z,5.03
2022-09-23T15:31:46.461Z,2.30
2022-09-23T15:34:13.403Z,1.50
2022-09-23T15:36:40.256Z,1.60
2022-09-23T15:39:10.515Z,1.80
2022-09-23T15:41:37.475Z,1.97
2022-09-23T15:44:16.916Z,1.43
2022-09-23T15:46:50.220Z,1.63
2022-09-23T15:49:47.609Z,1.50
2022-09-23T15:52:16.342Z,4.40
2022-09-23T15:54:44.219Z,1.80
2022-09-23T15:57:11.590Z,1.53
2022-09-23T15:59:42.493Z,1.80
2022-09-23T16:02:22.647Z,1.20
2022-09-23T16:04:52.476Z,1.40
2022-09-23T16:07:19.772Z,1.30
2022-09-23T16:09:46.721Z,1.37
2022-09-23T16:12:15.660Z,1.60
2022-09-23T16:14:42.771Z,1.30
2022-09-23T16:17:14.087Z,1.43
2022-09-23T16:19:41.117Z,1.60
2022-09-23T16:22:09.420Z,1.13
2022-09-23T16:24:37.167Z,1.40
2022-09-23T16:27:07.714Z,1.53
2022-09-23T16:29:34.686Z,1.40
2022-09-23T16:32:02.166Z,1.60
2022-09-23T16:34:29.519Z,1.40
2022-09-23T16:36:56.424Z,2.70
2022-09-23T16:39:23.332Z,1.60
2022-09-23T16:41:50.358Z,1.90
2022-09-23T16:44:17.240Z,2.03
2022-09-23T16:46:44.130Z,1.47
2022-09-23T16:49:13.960Z,1.80
2022-09-23T16:51:41.025Z,1.90
2022-09-23T16:54:12.069Z,2.00
2022-09-23T16:56:44.256Z,1.70
2022-09-23T16:59:13.830Z,1.43
2022-09-23T17:01:59.584Z,2.20
2022-09-23T17:04:27.626Z,1.70
2022-09-23T17:06:57.602Z,1.70
2022-09-23T17:09:28.755Z,1.77
2022-09-23T17:12:17.507Z,1.70
2022-09-23T17:14:44.880Z,1.60
2022-09-23T17:17:11.702Z,1.50
2022-09-23T17:19:41.250Z,1.80
2022-09-23T17:22:08.277Z,1.67
2022-09-23T17:24:35.207Z,1.90
2022-09-23T17:27:02.883Z,2.30
2022-09-23T17:29:30.871Z,1.73
2022-09-23T17:31:58.106Z,1.63
2022-09-23T17:34:25.139Z,2.10
2022-09-23T17:36:52.023Z,2.00
2022-09-23T17:39:18.951Z,2.10
2022-09-23T17:41:45.923Z,1.67
2022-09-23T17:44:12.909Z,2.10
2022-09-23T17:46:39.787Z,1.90
2022-09-23T17:49:07.875Z,2.00
2022-09-23T17:51:35.218Z,2.13
2022-09-23T17:54:02.090Z,2.00
2022-09-23T17:56:32.660Z,2.20
2022-09-23T17:59:01.881Z,2.33
2022-09-23T18:01:29.538Z,2.30
2022-09-23T18:04:02.195Z,2.83
2022-09-23T18:06:32.212Z,3.17
2022-09-23T18:09:04.125Z,2.40
2022-09-23T18:11:35.152Z,2.47
2022-09-23T18:14:21.139Z,2.70
2022-09-23T18:16:52.965Z,2.10
2022-09-23T18:19:23.128Z,2.23
2022-09-23T18:21:54.504Z,2.07
2022-09-23T18:24:31.962Z,2.20
2022-09-23T18:26:59.835Z,2.23
2022-09-23T18:29:27.217Z,2.27
2022-09-23T18:31:54.431Z,2.37
2022-09-23T18:34:21.810Z,2.57
2022-09-23T18:36:49.154Z,2.80
2022-09-23T18:39:16.643Z,2.87
2022-09-23T18:41:43.757Z,3.10
2022-09-23T18:44:10.721Z,2.53
2022-09-23T18:46:37.650Z,2.70
2022-09-23T18:49:23.241Z,2.13
2022-09-23T18:51:58.074Z,2.30
2022-09-23T18:54:28.347Z,2.47
2022-09-23T18:56:56.487Z,2.90
2022-09-23T18:59:27.751Z,2.87
2022-09-23T19:01:55.322Z,2.60
2022-09-23T19:04:24.912Z,2.80
2022-09-23T19:06:53.536Z,2.60
2022-09-23T19:09:20.514Z,2.77
2022-09-23T19:11:52.037Z,2.60
2022-09-23T19:14:19.579Z,2.70
2022-09-23T19:16:48.872Z,2.77
2022-09-23T19:19:16.010Z,3.20
2022-09-23T19:21:43.139Z,3.20
2022-09-23T19:24:15.492Z,3.37
2022-09-23T19:26:43.472Z,3.10
2022-09-23T19:29:16.045Z,3.53
2022-09-23T19:31:43.740Z,3.77
2022-09-23T19:34:17.715Z,2.50
2022-09-23T19:36:47.539Z,3.10
2022-09-23T19:39:27.364Z,3.10
2022-09-23T19:41:58.670Z,4.27
2022-09-23T19:44:29.036Z,3.70
2022-09-23T19:46:57.444Z,3.50
2022-09-23T19:49:25.687Z,3.33
2022-09-23T19:51:55.831Z,3.70
2022-09-23T19:54:25.947Z,3.67
2022-09-23T19:56:52.799Z,3.17
2022-09-23T19:59:19.799Z,3.17
2022-09-23T20:01:48.564Z,2.67
2022-09-23T20:04:16.747Z,4.50
2022-09-23T20:06:43.912Z,7.10
2022-09-23T20:09:10.889Z,7.70
2022-09-23T20:11:37.942Z,5.50
2022-09-23T20:14:06.149Z,4.83
2022-09-23T20:16:36.684Z,4.07
2022-09-23T20:19:05.489Z,5.10
2022-09-23T20:21:33.694Z,4.50
2022-09-23T20:24:01.656Z,4.10
2022-09-23T20:26:47.724Z,5.90
2022-09-23T20:29:14.753Z,6.43
2022-09-23T20:31:41.903Z,6.17
2022-09-23T20:34:10.874Z,5.53
2022-09-23T20:36:41.301Z,5.60
2022-09-23T20:39:09.642Z,4.07
2022-09-23T20:41:38.966Z,4.73
2022-09-23T20:44:12.824Z,5.83
2022-09-23T20:46:48.168Z,4.97
2022-09-23T20:49:17.629Z,5.30
2022-09-23T20:51:47.460Z,4.57
2022-09-23T20:54:14.675Z,5.97
2022-09-23T20:56:41.590Z,7.27
2022-09-23T20:59:11.247Z,6.27
2022-09-23T21:01:38.167Z,4.33
2022-09-23T21:04:05.884Z,4.93
2022-09-23T21:06:37.619Z,4.77
2022-09-23T21:09:06.487Z,3.60
2022-09-23T21:11:33.794Z,4.03
2022-09-23T21:14:01.456Z,4.47
2022-09-23T21:16:29.469Z,4.63
2022-09-23T21:18:57.661Z,4.00
2022-09-23T21:21:24.499Z,4.30
2022-09-23T21:23:51.855Z,4.20
2022-09-23T21:26:23.197Z,3.50
2022-09-23T21:28:53.292Z,3.30
2022-09-23T21:31:33.793Z,4.10
2022-09-23T21:34:03.294Z,3.80
2022-09-23T21:36:34.460Z,2.80
2022-09-23T21:39:02.917Z,3.10
2022-09-23T21:41:30.400Z,2.90
2022-09-23T21:43:57.725Z,4.03
2022-09-23T21:46:26.946Z,4.67
2022-09-23T21:48:57.395Z,3.30
2022-09-23T21:51:27.885Z,3.20
2022-09-23T21:53:57.536Z,3.70
2022-09-23T21:56:31.323Z,3.33
2022-09-23T21:58:59.849Z,3.20
2022-09-23T22:01:36.213Z,3.80
2022-09-23T22:04:13.890Z,3.30
2022-09-23T22:06:42.928Z,3.70
2022-09-23T22:09:15.921Z,3.70
2022-09-23T22:12:02.030Z,3.10
2022-09-23T22:14:30.403Z,4.00
2022-09-23T22:17:02.213Z,3.87
2022-09-23T22:19:35.013Z,4.27
2022-09-23T22:22:14.491Z,4.77
2022-09-23T22:24:46.319Z,4.90
2022-09-23T22:27:16.578Z,3.70
2022-09-23T22:30:02.439Z,3.87
2022-09-23T22:32:55.471Z,4.57
2022-09-23T22:35:22.451Z,5.13
2022-09-23T22:37:49.262Z,4.00
2022-09-23T22:40:16.512Z,3.90
2022-09-23T22:42:44.087Z,3.80
2022-09-23T22:45:12.313Z,3.40
2022-09-23T22:47:44.080Z,4.87
2022-09-23T22:50:11.276Z,4.20
2022-09-23T22:52:38.098Z,4.83
2022-09-23T22:55:07.816Z,5.03
2022-09-23T22:57:34.971Z,3.40
2022-09-23T23:00:06.186Z,5.03
2022-09-23T23:02:33.152Z,4.70
2022-09-23T23:05:00.375Z,4.50
2022-09-23T23:07:27.278Z,4.27
2022-09-23T23:09:54.202Z,3.70
2022-09-23T23:12:21.625Z,5.10
2022-09-23T23:14:49.431Z,5.03
2022-09-23T23:17:17.295Z,4.53
2022-09-23T23:19:44.248Z,5.37
2022-09-23T23:22:11.162Z,4.57
2022-09-23T23:24:38.065Z,5.17
2022-09-23T23:27:05.209Z,4.23
2022-09-23T23:29:32.054Z,4.30
2022-09-23T23:31:58.969Z,4.93
2022-09-23T23:34:25.907Z,4.83
2022-09-23T23:36:56.484Z,5.50
2022-09-23T23:39:25.214Z,4.20
2022-09-23T23:41:57.354Z,5.47
2022-09-23T23:44:26.563Z,4.70
2022-09-23T23:46:54.279Z,4.60
2022-09-23T23:49:21.986Z,4.83
2022-09-23T23:51:49.323Z,5.70
2022-09-23T23:54:16.674Z,4.30
2022-09-23T23:56:43.902Z,4.80
2022-09-23T23:59:11.335Z,4.70
